sensor_id;sensor_type;location;lat;lon;timestamp;P1;durP1;ratioP1;P2;durP2;ratioP2
58354;SDS011;44160;49.080;19.302;2022-09-23T00:02:26;5.70;;;3.80;;
58354;SDS011;44160;49.080;19.302;2022-09-23T00:07:48;5.28;;;3.58;;
58354;SDS011;44160;49.080;19.302;2022-09-23T00:10:46;6.68;;;3.13;;
58354;SDS011;44160;49.080;19.302;2022-09-23T00:13:38;4.18;;;3.22;;
58354;SDS011;44160;49.080;19.302;2022-09-23T00:19:02;4.50;;;3.03;;
58354;SDS011;44160;49.080;19.302;2022-09-23T00:22:00;5.55;;;3.38;;
58354;SDS011;44160;49.080;19.302;2022-09-23T00:27:45;7.32;;;3.30;;
58354;SDS011;44160;49.080;19.302;2022-09-23T00:30:32;6.63;;;3.88;;
58354;SDS011;44160;49.080;19.302;2022-09-23T00:33:12;8.05;;;3.63;;
58354;SDS011;44160;49.080;19.302;2022-09-23T00:38:53;6.82;;;3.90;;
58354;SDS011;44160;49.080;19.302;2022-09-23T00:41:42;6.75;;;3.90;;
58354;SDS011;44160;49.080;19.302;2022-09-23T00:52:58;13.48;;;9.50;;
58354;SDS011;44160;49.080;19.302;2022-09-23T00:58:45;11.05;;;7.63;;
58354;SDS011;44160;49.080;19.302;2022-09-23T01:06:59;7.70;;;5.25;;
58354;SDS011;44160;49.080;19.302;2022-09-23T01:12:32;5.88;;;4.13;;
58354;SDS011;44160;49.080;19.302;2022-09-23T01:16:16;4.70;;;3.47;;
58354;SDS011;44160;49.080;19.302;2022-09-23T01:21:12;8.70;;;3.90;;
58354;SDS011;44160;49.080;19.302;2022-09-23T01:35:27;5.57;;;3.28;;
58354;SDS011;44160;49.080;19.302;2022-09-23T01:47:51;7.35;;;3.90;;
58354;SDS011;44160;49.080;19.302;2022-09-23T01:49:59;6.40;;;4.18;;
58354;SDS011;44160;49.080;19.302;2022-09-23T01:52:55;9.00;;;4.72;;
58354;SDS011;44160;49.080;19.302;2022-09-23T01:55:36;7.65;;;4.10;;
58354;SDS011;44160;49.080;19.302;2022-09-23T02:01:22;7.68;;;3.88;;
58354;SDS011;44160;49.080;19.302;2022-09-23T02:04:09;5.45;;;4.10;;
58354;SDS011;44160;49.080;19.302;2022-09-23T02:06:54;9.50;;;4.05;;
58354;SDS011;44160;49.080;19.302;2022-09-23T02:12:59;6.50;;;4.32;;
58354;SDS011;44160;49.080;19.302;2022-09-23T02:31:41;10.15;;;5.25;;
58354;SDS011;44160;49.080;19.302;2022-09-23T02:34:47;7.75;;;4.20;;
58354;SDS011;44160;49.080;19.302;2022-09-23T02:37:42;10.70;;;4.68;;
58354;SDS011;44160;49.080;19.302;2022-09-23T02:40:23;9.40;;;6.50;;
58354;SDS011;44160;49.080;19.302;2022-09-23T02:46:10;9.52;;;7.07;;
58354;SDS011;44160;49.080;19.302;2022-09-23T02:48:58;13.90;;;6.90;;
58354;SDS011;44160;49.080;19.302;2022-09-23T02:51:42;11.98;;;7.43;;
58354;SDS011;44160;49.080;19.302;2022-09-23T02:54:23;11.15;;;6.82;;
58354;SDS011;44160;49.080;19.302;2022-09-23T02:57:13;11.93;;;6.65;;
58354;SDS011;44160;49.080;19.302;2022-09-23T03:00:21;10.65;;;7.07;;
58354;SDS011;44160;49.080;19.302;2022-09-23T03:18:14;7.22;;;5.10;;
58354;SDS011;44160;49.080;19.302;2022-09-23T03:21:01;6.78;;;4.03;;
58354;SDS011;44160;49.080;19.302;2022-09-23T03:23:30;7.13;;;4.93;;
58354;SDS011;44160;49.080;19.302;2022-09-23T03:29:25;8.88;;;6.00;;
58354;SDS011;44160;49.080;19.302;2022-09-23T03:35:04;9.80;;;5.85;;
58354;SDS011;44160;49.080;19.302;2022-09-23T03:43:15;12.43;;;6.82;;
58354;SDS011;44160;49.080;19.302;2022-09-23T03:45:57;9.23;;;6.10;;
58354;SDS011;44160;49.080;19.302;2022-09-23T03:48:46;10.38;;;7.40;;
58354;SDS011;44160;49.080;19.302;2022-09-23T03:51:54;18.58;;;10.75;;
58354;SDS011;44160;49.080;19.302;2022-09-23T03:54:21;16.73;;;11.10;;
58354;SDS011;44160;49.080;19.302;2022-09-23T03:57:01;15.55;;;11.10;;
58354;SDS011;44160;49.080;19.302;2022-09-23T03:59:57;16.58;;;10.02;;
58354;SDS011;44160;49.080;19.302;2022-09-23T04:02:24;16.58;;;10.65;;
58354;SDS011;44160;49.080;19.302;2022-09-23T04:04:51;18.98;;;9.93;;
58354;SDS011;44160;49.080;19.302;2022-09-23T04:10:48;14.85;;;9.00;;
58354;SDS011;44160;49.080;19.302;2022-09-23T04:13:44;10.45;;;7.70;;
58354;SDS011;44160;49.080;19.302;2022-09-23T04:16:36;14.05;;;10.07;;
58354;SDS011;44160;49.080;19.302;2022-09-23T04:19:27;17.80;;;12.07;;
58354;SDS011;44160;49.080;19.302;2022-09-23T04:24:59;11.73;;;9.05;;
58354;SDS011;44160;49.080;19.302;2022-09-23T04:27:45;8.82;;;7.03;;
58354;SDS011;44160;49.080;19.302;2022-09-23T04:30:30;12.45;;;7.88;;
58354;SDS011;44160;49.080;19.302;2022-09-23T04:33:00;11.05;;;7.88;;
58354;SDS011;44160;49.080;19.302;2022-09-23T04:35:30;11.75;;;7.50;;
58354;SDS011;44160;49.080;19.302;2022-09-23T04:38:12;11.90;;;8.10;;
58354;SDS011;44160;49.080;19.302;2022-09-23T04:41:43;13.20;;;7.25;;
58354;SDS011;44160;49.080;19.302;2022-09-23T04:46:53;9.15;;;6.40;;
58354;SDS011;44160;49.080;19.302;2022-09-23T04:49:20;12.23;;;5.88;;
58354;SDS011;44160;49.080;19.302;2022-09-23T04:52:20;6.95;;;5.40;;
58354;SDS011;44160;49.080;19.302;2022-09-23T04:54:50;6.72;;;4.28;;
58354;SDS011;44160;49.080;19.302;2022-09-23T04:57:22;5.28;;;3.63;;
58354;SDS011;44160;49.080;19.302;2022-09-23T04:59:52;4.75;;;3.63;;
58354;SDS011;44160;49.080;19.302;2022-09-23T05:02:30;4.45;;;3.38;;
58354;SDS011;44160;49.080;19.302;2022-09-23T05:04:59;3.88;;;3.15;;
58354;SDS011;44160;49.080;19.302;2022-09-23T05:07:34;4.60;;;2.90;;
58354;SDS011;44160;49.080;19.302;2022-09-23T05:10:19;6.90;;;3.45;;
58354;SDS011;44160;49.080;19.302;2022-09-23T05:12:52;12.23;;;5.88;;
58354;SDS011;44160;49.080;19.302;2022-09-23T05:15:23;8.38;;;5.68;;
58354;SDS011;44160;49.080;19.302;2022-09-23T05:17:59;7.82;;;5.43;;
58354;SDS011;44160;49.080;19.302;2022-09-23T05:20:38;6.88;;;4.80;;
58354;SDS011;44160;49.080;19.302;2022-09-23T05:23:26;8.68;;;4.47;;
58354;SDS011;44160;49.080;19.302;2022-09-23T05:26:14;5.95;;;4.40;;
58354;SDS011;44160;49.080;19.302;2022-09-23T05:28:44;8.57;;;3.95;;
58354;SDS011;44160;49.080;19.302;2022-09-23T05:31:52;6.30;;;3.50;;
58354;SDS011;44160;49.080;19.302;2022-09-23T05:34:18;3.88;;;2.78;;
58354;SDS011;44160;49.080;19.302;2022-09-23T05:36:52;6.65;;;3.85;;
58354;SDS011;44160;49.080;19.302;2022-09-23T05:39:19;8.15;;;4.32;;
58354;SDS011;44160;49.080;19.302;2022-09-23T05:41:47;5.15;;;3.22;;
58354;SDS011;44160;49.080;19.302;2022-09-23T05:44:15;7.28;;;3.13;;
58354;SDS011;44160;49.080;19.302;2022-09-23T05:47:01;8.00;;;3.35;;
58354;SDS011;44160;49.080;19.302;2022-09-23T05:49:30;4.65;;;3.33;;
58354;SDS011;44160;49.080;19.302;2022-09-23T05:52:33;19.25;;;9.85;;
58354;SDS011;44160;49.080;19.302;2022-09-23T05:55:10;7.40;;;4.60;;
58354;SDS011;44160;49.080;19.302;2022-09-23T05:58:18;6.90;;;4.50;;
58354;SDS011;44160;49.080;19.302;2022-09-23T06:01:22;5.50;;;3.65;;
58354;SDS011;44160;49.080;19.302;2022-09-23T06:04:48;4.93;;;4.03;;
58354;SDS011;44160;49.080;19.302;2022-09-23T06:10:28;17.45;;;7.28;;
58354;SDS011;44160;49.080;19.302;2022-09-23T06:13:07;8.70;;;4.72;;
58354;SDS011;44160;49.080;19.302;2022-09-23T06:15:50;7.43;;;5.10;;
58354;SDS011;44160;49.080;19.302;2022-09-23T06:18:58;5.38;;;3.30;;
58354;SDS011;44160;49.080;19.302;2022-09-23T06:21:36;5.30;;;3.40;;
58354;SDS011;44160;49.080;19.302;2022-09-23T06:24:17;10.10;;;5.30;;
58354;SDS011;44160;49.080;19.302;2022-09-23T06:26:57;4.50;;;3.33;;
58354;SDS011;44160;49.080;19.302;2022-09-23T06:29:54;8.35;;;4.38;;
58354;SDS011;44160;49.080;19.302;2022-09-23T06:32:27;10.95;;;4.20;;
58354;SDS011;44160;49.080;19.302;2022-09-23T06:35:04;16.50;;;8.75;;
58354;SDS011;44160;49.080;19.302;2022-09-23T06:37:54;13.15;;;8.45;;
58354;SDS011;44160;49.080;19.302;2022-09-23T06:40:43;10.45;;;5.95;;
58354;SDS011;44160;49.080;19.302;2022-09-23T06:46:11;6.40;;;3.50;;
58354;SDS011;44160;49.080;19.302;2022-09-23T06:48:40;5.45;;;3.13;;
58354;SDS011;44160;49.080;19.302;2022-09-23T06:51:20;5.65;;;3.20;;
58354;SDS011;44160;49.080;19.302;2022-09-23T06:53:46;5.00;;;3.42;;
58354;SDS011;44160;49.080;19.302;2022-09-23T06:56:12;13.93;;;10.63;;
58354;SDS011;44160;49.080;19.302;2022-09-23T06:58:38;14.18;;;10.95;;
58354;SDS011;44160;49.080;19.302;2022-09-23T07:01:14;7.28;;;4.97;;
58354;SDS011;44160;49.080;19.302;2022-09-23T07:03:40;5.70;;;3.75;;
58354;SDS011;44160;49.080;19.302;2022-09-23T07:06:07;5.20;;;3.80;;
58354;SDS011;44160;49.080;19.302;2022-09-23T07:08:34;6.57;;;4.18;;
58354;SDS011;44160;49.080;19.302;2022-09-23T07:11:01;7.90;;;4.05;;
58354;SDS011;44160;49.080;19.302;2022-09-23T07:13:28;6.28;;;3.90;;
58354;SDS011;44160;49.080;19.302;2022-09-23T07:15:57;6.30;;;3.60;;
58354;SDS011;44160;49.080;19.302;2022-09-23T07:18:24;6.63;;;3.63;;
58354;SDS011;44160;49.080;19.302;2022-09-23T07:20:51;5.13;;;3.45;;
58354;SDS011;44160;49.080;19.302;2022-09-23T07:23:17;4.47;;;3.20;;
58354;SDS011;44160;49.080;19.302;2022-09-23T07:25:44;5.30;;;3.33;;
58354;SDS011;44160;49.080;19.302;2022-09-23T07:28:15;6.60;;;3.67;;
58354;SDS011;44160;49.080;19.302;2022-09-23T07:30:41;5.20;;;3.47;;
58354;SDS011;44160;49.080;19.302;2022-09-23T07:33:08;7.53;;;4.65;;
58354;SDS011;44160;49.080;19.302;2022-09-23T07:35:37;6.22;;;3.08;;
58354;SDS011;44160;49.080;19.302;2022-09-23T07:38:03;7.28;;;3.80;;
58354;SDS011;44160;49.080;19.302;2022-09-23T07:40:29;7.13;;;3.67;;
58354;SDS011;44160;49.080;19.302;2022-09-23T07:42:55;5.35;;;3.40;;
58354;SDS011;44160;49.080;19.302;2022-09-23T07:45:21;5.95;;;3.38;;
58354;SDS011;44160;49.080;19.302;2022-09-23T07:47:49;5.95;;;3.22;;
58354;SDS011;44160;49.080;19.302;2022-09-23T07:50:15;8.18;;;4.47;;
58354;SDS011;44160;49.080;19.302;2022-09-23T07:52:43;6.00;;;3.70;;
58354;SDS011;44160;49.080;19.302;2022-09-23T07:55:09;5.00;;;3.47;;
58354;SDS011;44160;49.080;19.302;2022-09-23T07:57:35;4.82;;;3.40;;
58354;SDS011;44160;49.080;19.302;2022-09-23T08:00:01;6.13;;;4.25;;
58354;SDS011;44160;49.080;19.302;2022-09-23T08:02:28;11.95;;;7.50;;
58354;SDS011;44160;49.080;19.302;2022-09-23T08:04:54;9.52;;;7.15;;
58354;SDS011;44160;49.080;19.302;2022-09-23T08:07:20;10.02;;;6.10;;
58354;SDS011;44160;49.080;19.302;2022-09-23T08:09:46;8.15;;;5.70;;
58354;SDS011;44160;49.080;19.302;2022-09-23T08:12:13;9.57;;;4.20;;
58354;SDS011;44160;49.080;19.302;2022-09-23T08:14:40;6.50;;;4.45;;
58354;SDS011;44160;49.080;19.302;2022-09-23T08:17:06;9.63;;;4.25;;
58354;SDS011;44160;49.080;19.302;2022-09-23T08:19:32;8.05;;;4.10;;
58354;SDS011;44160;49.080;19.302;2022-09-23T08:21:58;7.30;;;5.25;;
58354;SDS011;44160;49.080;19.302;2022-09-23T08:24:24;7.03;;;3.95;;
58354;SDS011;44160;49.080;19.302;2022-09-23T08:26:51;6.40;;;3.70;;
58354;SDS011;44160;49.080;19.302;2022-09-23T08:29:18;6.43;;;3.35;;
58354;SDS011;44160;49.080;19.302;2022-09-23T08:31:45;6.93;;;3.67;;
58354;SDS011;44160;49.080;19.302;2022-09-23T08:34:11;4.47;;;3.08;;
58354;SDS011;44160;49.080;19.302;2022-09-23T08:36:37;5.88;;;2.85;;
58354;SDS011;44160;49.080;19.302;2022-09-23T08:39:04;3.83;;;2.80;;
58354;SDS011;44160;49.080;19.302;2022-09-23T08:44:26;5.95;;;3.15;;
58354;SDS011;44160;49.080;19.302;2022-09-23T08:46:53;5.28;;;3.20;;
58354;SDS011;44160;49.080;19.302;2022-09-23T08:52:13;11.48;;;3.67;;
58354;SDS011;44160;49.080;19.302;2022-09-23T08:54:42;6.30;;;3.65;;
58354;SDS011;44160;49.080;19.302;2022-09-23T08:57:08;7.07;;;3.38;;
58354;SDS011;44160;49.080;19.302;2022-09-23T08:59:41;6.55;;;3.60;;
58354;SDS011;44160;49.080;19.302;2022-09-23T09:04:39;5.82;;;2.95;;
58354;SDS011;44160;49.080;19.302;2022-09-23T09:09:50;4.78;;;2.60;;
58354;SDS011;44160;49.080;19.302;2022-09-23T09:12:19;3.22;;;2.67;;
58354;SDS011;44160;49.080;19.302;2022-09-23T09:17:35;3.63;;;2.10;;
58354;SDS011;44160;49.080;19.302;2022-09-23T09:22:55;6.93;;;2.20;;
58354;SDS011;44160;49.080;19.302;2022-09-23T09:27:50;1.42;;;1.33;;
58354;SDS011;44160;49.080;19.302;2022-09-23T09:30:16;2.63;;;2.17;;
58354;SDS011;44160;49.080;19.302;2022-09-23T09:32:44;3.60;;;1.80;;
58354;SDS011;44160;49.080;19.302;2022-09-23T09:37:58;2.47;;;1.92;;
58354;SDS011;44160;49.080;19.302;2022-09-23T09:40:25;2.58;;;2.00;;
58354;SDS011;44160;49.080;19.302;2022-09-23T09:42:51;2.05;;;1.48;;
58354;SDS011;44160;49.080;19.302;2022-09-23T09:53:16;3.45;;;2.15;;
58354;SDS011;44160;49.080;19.302;2022-09-23T09:55:43;1.65;;;1.50;;
58354;SDS011;44160;49.080;19.302;2022-09-23T09:58:11;3.92;;;1.58;;
58354;SDS011;44160;49.080;19.302;2022-09-23T10:00:43;2.42;;;1.65;;
58354;SDS011;44160;49.080;19.302;2022-09-23T10:11:09;2.17;;;1.63;;
58354;SDS011;44160;49.080;19.302;2022-09-23T10:13:39;2.05;;;1.33;;
58354;SDS011;44160;49.080;19.302;2022-09-23T10:16:06;1.98;;;1.50;;
58354;SDS011;44160;49.080;19.302;2022-09-23T10:21:07;1.20;;;1.00;;
58354;SDS011;44160;49.080;19.302;2022-09-23T10:23:36;1.67;;;1.25;;
58354;SDS011;44160;49.080;19.302;2022-09-23T10:26:04;1.35;;;1.15;;
58354;SDS011;44160;49.080;19.302;2022-09-23T10:31:05;1.83;;;1.20;;
58354;SDS011;44160;49.080;19.302;2022-09-23T10:33:32;1.83;;;1.40;;
58354;SDS011;44160;49.080;19.302;2022-09-23T10:36:02;1.63;;;1.30;;
58354;SDS011;44160;49.080;19.302;2022-09-23T10:38:31;1.67;;;1.27;;
58354;SDS011;44160;49.080;19.302;2022-09-23T10:40:57;1.27;;;1.13;;
58354;SDS011;44160;49.080;19.302;2022-09-23T10:44:16;1.85;;;1.25;;
58354;SDS011;44160;49.080;19.302;2022-09-23T11:08:35;2.50;;;1.90;;
58354;SDS011;44160;49.080;19.302;2022-09-23T11:16:08;1.67;;;1.50;;
58354;SDS011;44160;49.080;19.302;2022-09-23T11:21:25;2.00;;;1.58;;
58354;SDS011;44160;49.080;19.302;2022-09-23T11:33:54;2.58;;;1.80;;
58354;SDS011;44160;49.080;19.302;2022-09-23T11:36:27;4.40;;;1.77;;
58354;SDS011;44160;49.080;19.302;2022-09-23T11:38:57;2.58;;;1.73;;
58354;SDS011;44160;49.080;19.302;2022-09-23T11:41:26;1.92;;;1.70;;
58354;SDS011;44160;49.080;19.302;2022-09-23T11:43:55;4.25;;;2.53;;
58354;SDS011;44160;49.080;19.302;2022-09-23T11:46:29;2.17;;;1.80;;
58354;SDS011;44160;49.080;19.302;2022-09-23T11:51:47;2.28;;;1.60;;
58354;SDS011;44160;49.080;19.302;2022-09-23T11:54:20;1.75;;;1.27;;
58354;SDS011;44160;49.080;19.302;2022-09-23T11:56:52;7.15;;;3.75;;
58354;SDS011;44160;49.080;19.302;2022-09-23T11:59:26;2.63;;;1.75;;
58354;SDS011;44160;49.080;19.302;2022-09-23T12:02:18;3.40;;;1.60;;
58354;SDS011;44160;49.080;19.302;2022-09-23T12:04:41;2.35;;;1.60;;
58354;SDS011;44160;49.080;19.302;2022-09-23T12:10:07;1.80;;;1.38;;
58354;SDS011;44160;49.080;19.302;2022-09-23T12:20:29;2.45;;;1.70;;
58354;SDS011;44160;49.080;19.302;2022-09-23T12:27:54;1.90;;;1.60;;
58354;SDS011;44160;49.080;19.302;2022-09-23T12:30:25;3.05;;;1.63;;
58354;SDS011;44160;49.080;19.302;2022-09-23T12:32:52;2.42;;;1.60;;
58354;SDS011;44160;49.080;19.302;2022-09-23T12:35:33;3.65;;;2.03;;
58354;SDS011;44160;49.080;19.302;2022-09-23T12:38:01;2.20;;;1.88;;
58354;SDS011;44160;49.080;19.302;2022-09-23T12:40:36;1.95;;;1.40;;
58354;SDS011;44160;49.080;19.302;2022-09-23T12:43:15;3.28;;;2.13;;
58354;SDS011;44160;49.080;19.302;2022-09-23T12:45:42;3.05;;;1.98;;
58354;SDS011;44160;49.080;19.302;2022-09-23T12:50:45;1.98;;;1.42;;
58354;SDS011;44160;49.080;19.302;2022-09-23T12:55:56;3.20;;;2.08;;
58354;SDS011;44160;49.080;19.302;2022-09-23T13:03:46;3.22;;;2.00;;
58354;SDS011;44160;49.080;19.302;2022-09-23T13:06:34;1.90;;;1.40;;
58354;SDS011;44160;49.080;19.302;2022-09-23T13:09:02;3.58;;;1.70;;
58354;SDS011;44160;49.080;19.302;2022-09-23T13:11:31;1.70;;;1.40;;
58354;SDS011;44160;49.080;19.302;2022-09-23T13:13:58;1.83;;;1.38;;
58354;SDS011;44160;49.080;19.302;2022-09-23T13:18:53;1.60;;;1.27;;
58354;SDS011;44160;49.080;19.302;2022-09-23T13:24:33;2.08;;;1.38;;
58354;SDS011;44160;49.080;19.302;2022-09-23T13:32:11;2.65;;;1.50;;
58354;SDS011;44160;49.080;19.302;2022-09-23T13:34:39;1.83;;;1.50;;
58354;SDS011;44160;49.080;19.302;2022-09-23T13:37:22;1.75;;;1.42;;
58354;SDS011;44160;49.080;19.302;2022-09-23T13:39:48;2.10;;;1.58;;
58354;SDS011;44160;49.080;19.302;2022-09-23T13:42:25;4.60;;;1.95;;
58354;SDS011;44160;49.080;19.302;2022-09-23T13:44:56;2.72;;;1.65;;
58354;SDS011;44160;49.080;19.302;2022-09-23T13:47:25;4.47;;;2.00;;
58354;SDS011;44160;49.080;19.302;2022-09-23T13:49:52;3.13;;;1.98;;
58354;SDS011;44160;49.080;19.302;2022-09-23T13:52:25;3.05;;;1.90;;
58354;SDS011;44160;49.080;19.302;2022-09-23T13:54:53;3.60;;;2.20;;
58354;SDS011;44160;49.080;19.302;2022-09-23T13:57:24;2.28;;;1.60;;
58354;SDS011;44160;49.080;19.302;2022-09-23T13:59:50;4.25;;;3.38;;
58354;SDS011;44160;49.080;19.302;2022-09-23T14:02:17;3.75;;;2.50;;
58354;SDS011;44160;49.080;19.302;2022-09-23T14:04:49;3.95;;;2.00;;
58354;SDS011;44160;49.080;19.302;2022-09-23T14:07:16;2.53;;;1.92;;
58354;SDS011;44160;49.080;19.302;2022-09-23T14:09:44;2.88;;;1.77;;
58354;SDS011;44160;49.080;19.302;2022-09-23T14:12:10;2.15;;;1.52;;
58354;SDS011;44160;49.080;19.302;2022-09-23T14:14:37;2.40;;;1.85;;
58354;SDS011;44160;49.080;19.302;2022-09-23T14:17:04;2.85;;;1.95;;
58354;SDS011;44160;49.080;19.302;2022-09-23T14:19:30;6.43;;;4.63;;
58354;SDS011;44160;49.080;19.302;2022-09-23T14:21:57;11.77;;;7.10;;
58354;SDS011;44160;49.080;19.302;2022-09-23T14:24:36;13.43;;;7.32;;
58354;SDS011;44160;49.080;19.302;2022-09-23T14:29:35;4.93;;;2.70;;
58354;SDS011;44160;49.080;19.302;2022-09-23T14:32:03;6.32;;;3.65;;
58354;SDS011;44160;49.080;19.302;2022-09-23T14:40:08;7.57;;;5.07;;
58354;SDS011;44160;49.080;19.302;2022-09-23T14:42:39;6.28;;;4.30;;
58354;SDS011;44160;49.080;19.302;2022-09-23T14:45:07;6.22;;;4.30;;
58354;SDS011;44160;49.080;19.302;2022-09-23T14:47:35;6.50;;;2.60;;
58354;SDS011;44160;49.080;19.302;2022-09-23T14:50:01;4.88;;;2.70;;
58354;SDS011;44160;49.080;19.302;2022-09-23T14:52:49;2.70;;;1.77;;
58354;SDS011;44160;49.080;19.302;2022-09-23T14:55:16;4.90;;;2.00;;
58354;SDS011;44160;49.080;19.302;2022-09-23T14:57:42;2.15;;;1.80;;
58354;SDS011;44160;49.080;19.302;2022-09-23T15:00:16;3.08;;;2.00;;
58354;SDS011;44160;49.080;19.302;2022-09-23T15:03:10;2.78;;;1.67;;
58354;SDS011;44160;49.080;19.302;2022-09-23T15:05:39;2.33;;;1.80;;
58354;SDS011;44160;49.080;19.302;2022-09-23T15:08:08;4.63;;;2.75;;
58354;SDS011;44160;49.080;19.302;2022-09-23T15:10:35;4.15;;;2.50;;
58354;SDS011;44160;49.080;19.302;2022-09-23T15:13:12;4.75;;;2.88;;
58354;SDS011;44160;49.080;19.302;2022-09-23T15:15:39;4.15;;;2.97;;
58354;SDS011;44160;49.080;19.302;2022-09-23T15:18:29;2.75;;;2.00;;
58354;SDS011;44160;49.080;19.302;2022-09-23T15:23:31;5.63;;;3.67;;
58354;SDS011;44160;49.080;19.302;2022-09-23T15:26:01;5.13;;;3.30;;
58354;SDS011;44160;49.080;19.302;2022-09-23T15:28:27;5.65;;;3.33;;
58354;SDS011;44160;49.080;19.302;2022-09-23T15:30:53;7.18;;;4.32;;
58354;SDS011;44160;49.080;19.302;2022-09-23T15:33:20;6.63;;;4.47;;
58354;SDS011;44160;49.080;19.302;2022-09-23T15:35:52;5.32;;;4.40;;
58354;SDS011;44160;49.080;19.302;2022-09-23T15:38:19;5.65;;;4.15;;
58354;SDS011;44160;49.080;19.302;2022-09-23T15:40:45;8.40;;;4.32;;
58354;SDS011;44160;49.080;19.302;2022-09-23T15:43:16;5.60;;;3.97;;
58354;SDS011;44160;49.080;19.302;2022-09-23T15:45:49;5.65;;;4.10;;
58354;SDS011;44160;49.080;19.302;2022-09-23T15:48:21;7.45;;;4.70;;
58354;SDS011;44160;49.080;19.302;2022-09-23T15:50:50;7.72;;;4.40;;
58354;SDS011;44160;49.080;19.302;2022-09-23T15:53:18;7.70;;;4.30;;
58354;SDS011;44160;49.080;19.302;2022-09-23T15:55:45;8.65;;;5.03;;
58354;SDS011;44160;49.080;19.302;2022-09-23T15:58:12;5.88;;;3.88;;
58354;SDS011;44160;49.080;19.302;2022-09-23T16:00:38;5.97;;;4.18;;
58354;SDS011;44160;49.080;19.302;2022-09-23T16:03:04;15.65;;;9.73;;
58354;SDS011;44160;49.080;19.302;2022-09-23T16:05:34;11.27;;;6.78;;
58354;SDS011;44160;49.080;19.302;2022-09-23T16:08:02;21.52;;;12.50;;
58354;SDS011;44160;49.080;19.302;2022-09-23T16:10:28;13.57;;;7.70;;
58354;SDS011;44160;49.080;19.302;2022-09-23T16:12:55;10.88;;;5.95;;
58354;SDS011;44160;49.080;19.302;2022-09-23T16:15:24;9.57;;;5.30;;
58354;SDS011;44160;49.080;19.302;2022-09-23T16:17:50;7.75;;;4.90;;
58354;SDS011;44160;49.080;19.302;2022-09-23T16:20:16;10.52;;;3.72;;
58354;SDS011;44160;49.080;19.302;2022-09-23T16:22:48;16.50;;;9.60;;
58354;SDS011;44160;49.080;19.302;2022-09-23T16:25:16;17.67;;;7.03;;
58354;SDS011;44160;49.080;19.302;2022-09-23T16:27:43;9.65;;;6.28;;
58354;SDS011;44160;49.080;19.302;2022-09-23T16:30:10;8.57;;;6.10;;
58354;SDS011;44160;49.080;19.302;2022-09-23T16:32:36;13.13;;;7.45;;
58354;SDS011;44160;49.080;19.302;2022-09-23T16:35:03;11.50;;;7.03;;
58354;SDS011;44160;49.080;19.302;2022-09-23T16:37:30;13.23;;;7.25;;
58354;SDS011;44160;49.080;19.302;2022-09-23T16:39:56;14.23;;;6.90;;
58354;SDS011;44160;49.080;19.302;2022-09-23T16:42:23;10.75;;;6.28;;
58354;SDS011;44160;49.080;19.302;2022-09-23T16:44:49;7.88;;;5.55;;
58354;SDS011;44160;49.080;19.302;2022-09-23T16:47:15;11.27;;;5.78;;
58354;SDS011;44160;49.080;19.302;2022-09-23T16:49:41;10.70;;;4.57;;
58354;SDS011;44160;49.080;19.302;2022-09-23T16:52:07;7.10;;;4.85;;
58354;SDS011;44160;49.080;19.302;2022-09-23T16:54:39;8.90;;;4.97;;
58354;SDS011;44160;49.080;19.302;2022-09-23T16:57:06;6.20;;;4.63;;
58354;SDS011;44160;49.080;19.302;2022-09-23T16:59:33;6.10;;;4.22;;
58354;SDS011;44160;49.080;19.302;2022-09-23T17:02:18;7.25;;;4.43;;
58354;SDS011;44160;49.080;19.302;2022-09-23T17:05:03;6.32;;;4.70;;
58354;SDS011;44160;49.080;19.302;2022-09-23T17:07:32;5.57;;;4.18;;
58354;SDS011;44160;49.080;19.302;2022-09-23T17:09:58;10.60;;;6.95;;
58354;SDS011;44160;49.080;19.302;2022-09-23T17:12:25;12.15;;;7.80;;
58354;SDS011;44160;49.080;19.302;2022-09-23T17:14:53;13.32;;;8.63;;
58354;SDS011;44160;49.080;19.302;2022-09-23T17:17:19;14.45;;;9.07;;
58354;SDS011;44160;49.080;19.302;2022-09-23T17:19:46;11.02;;;7.57;;
58354;SDS011;44160;49.080;19.302;2022-09-23T17:22:12;13.55;;;7.93;;
58354;SDS011;44160;49.080;19.302;2022-09-23T17:24:38;9.75;;;6.50;;
58354;SDS011;44160;49.080;19.302;2022-09-23T17:27:04;8.63;;;6.65;;
58354;SDS011;44160;49.080;19.302;2022-09-23T17:29:30;11.20;;;6.72;;
58354;SDS011;44160;49.080;19.302;2022-09-23T17:31:56;9.38;;;5.72;;
58354;SDS011;44160;49.080;19.302;2022-09-23T17:34:22;9.95;;;6.90;;
58354;SDS011;44160;49.080;19.302;2022-09-23T17:36:49;12.13;;;7.18;;
58354;SDS011;44160;49.080;19.302;2022-09-23T17:39:15;15.68;;;9.55;;
58354;SDS011;44160;49.080;19.302;2022-09-23T17:41:41;12.18;;;8.52;;
58354;SDS011;44160;49.080;19.302;2022-09-23T17:44:09;15.68;;;9.75;;
58354;SDS011;44160;49.080;19.302;2022-09-23T17:46:35;18.63;;;11.15;;
58354;SDS011;44160;49.080;19.302;2022-09-23T17:49:01;19.50;;;12.32;;
58354;SDS011;44160;49.080;19.302;2022-09-23T17:51:28;16.70;;;10.35;;
58354;SDS011;44160;49.080;19.302;2022-09-23T17:53:54;15.32;;;10.07;;
58354;SDS011;44160;49.080;19.302;2022-09-23T17:56:24;21.23;;;13.35;;
58354;SDS011;44160;49.080;19.302;2022-09-23T17:58:50;18.05;;;12.02;;
58354;SDS011;44160;49.080;19.302;2022-09-23T18:01:21;120.13;;;58.17;;
58354;SDS011;44160;49.080;19.302;2022-09-23T18:03:47;24.00;;;13.57;;
58354;SDS011;44160;49.080;19.302;2022-09-23T18:06:18;18.83;;;10.98;;
58354;SDS011;44160;49.080;19.302;2022-09-23T18:08:51;14.07;;;8.93;;
58354;SDS011;44160;49.080;19.302;2022-09-23T18:11:21;19.42;;;10.05;;
58354;SDS011;44160;49.080;19.302;2022-09-23T18:14:06;12.02;;;7.60;;
58354;SDS011;44160;49.080;19.302;2022-09-23T18:16:34;12.68;;;7.00;;
58354;SDS011;44160;49.080;19.302;2022-09-23T18:19:01;9.65;;;6.45;;
58354;SDS011;44160;49.080;19.302;2022-09-23T18:21:29;11.75;;;7.55;;
58354;SDS011;44160;49.080;19.302;2022-09-23T18:23:55;11.82;;;6.93;;
58354;SDS011;44160;49.080;19.302;2022-09-23T18:26:22;16.25;;;8.55;;
58354;SDS011;44160;49.080;19.302;2022-09-23T18:28:49;17.42;;;8.88;;
58354;SDS011;44160;49.080;19.302;2022-09-23T18:31:17;16.15;;;9.85;;
58354;SDS011;44160;49.080;19.302;2022-09-23T18:33:48;12.82;;;8.70;;
58354;SDS011;44160;49.080;19.302;2022-09-23T18:36:15;17.20;;;8.43;;
58354;SDS011;44160;49.080;19.302;2022-09-23T18:38:41;21.25;;;11.68;;
58354;SDS011;44160;49.080;19.302;2022-09-23T18:41:07;29.40;;;15.05;;
58354;SDS011;44160;49.080;19.302;2022-09-23T18:43:35;33.97;;;17.25;;
58354;SDS011;44160;49.080;19.302;2022-09-23T18:46:02;44.03;;;23.02;;
58354;SDS011;44160;49.080;19.302;2022-09-23T18:48:29;49.00;;;24.92;;
58354;SDS011;44160;49.080;19.302;2022-09-23T18:51:14;28.27;;;16.95;;
58354;SDS011;44160;49.080;19.302;2022-09-23T18:53:41;20.83;;;12.88;;
58354;SDS011;44160;49.080;19.302;2022-09-23T18:56:08;21.33;;;10.98;;
58354;SDS011;44160;49.080;19.302;2022-09-23T18:58:34;15.15;;;8.60;;
58354;SDS011;44160;49.080;19.302;2022-09-23T19:01:05;17.42;;;8.00;;
58354;SDS011;44160;49.080;19.302;2022-09-23T19:03:32;27.20;;;14.60;;
58354;SDS011;44160;49.080;19.302;2022-09-23T19:06:05;31.08;;;18.00;;
58354;SDS011;44160;49.080;19.302;2022-09-23T19:08:31;23.88;;;13.85;;
58354;SDS011;44160;49.080;19.302;2022-09-23T19:10:58;18.60;;;12.13;;
58354;SDS011;44160;49.080;19.302;2022-09-23T19:13:25;21.67;;;11.07;;
58354;SDS011;44160;49.080;19.302;2022-09-23T19:15:51;19.23;;;11.45;;
58354;SDS011;44160;49.080;19.302;2022-09-23T19:18:17;17.20;;;11.40;;
58354;SDS011;44160;49.080;19.302;2022-09-23T19:20:51;21.92;;;13.18;;